• Join FlightAware (Why Join?)
  • Login
  • US Flag 
02:44AM EDT


 

Airport Tracker/Info


-or-


 

Live Flight TrackerFlight Track Log ✈ DAL470 ✈ 27-Apr-2013 ✈ KLAS - KMEM

Flight Track Log - Related Links

Times and Time Zones

All times are in EDT time to prevent confusion due to time zone crossing. See the DAL470 flight status page for this flight to view local times or setup timezone preferences in your user account.

Time Position Orientation Groundspeed Altitude Reporting Facility
EDT Latitude Longitude Course Direction KTS MPH feet Rate Location/Type
04:34PM 36.0761 -115.1789 85° East 170 196 3,300  Level Los Angeles Center
04:35PM 36.0739 -115.2381 267° West 207 238 4,300 1,500 Climbing Los Angeles Center
04:36PM 35.8257 -115.1160 103° East  Level FlightAware Approximate
04:36PM 36.0061 -115.2842 209° Southwest 283 326 6,300  Level Los Angeles Center
04:37PM 35.8270 -114.9528 84° East  Level FlightAware Approximate
04:37PM 35.9286 -115.2828 179° South 289 333 9,400  Level Los Angeles Center
04:38PM 35.8386 -114.7885 85° East  Level FlightAware Approximate
04:38PM 35.9006 -115.1661 107° East 323 372 11,400  Level Los Angeles Center
04:39PM 35.8495 -114.6239 85° East  Level FlightAware Approximate
04:39PM 35.9039 -115.0433 88° East 355 409 15,000  Level Los Angeles Center
04:40PM 35.9056 -114.9250 89° East 350 403 17,300 2,220 Climbing Los Angeles Center
04:41PM 35.9086 -114.8019 88° East 355 409 19,600 1,860 Climbing Los Angeles Center
04:42PM 35.9114 -114.6747 88° East 366 421 21,200 1,680 Climbing Los Angeles Center
04:43PM 35.9125 -114.5406 89° East 384 442 23,100 1,800 Climbing Los Angeles Center
04:44PM 35.9156 -114.3761 89° East 397 457 25,000 1,680 Climbing Los Angeles Center
04:45PM 35.9189 -114.2356 88° East 407 468 26,600 1,320 Climbing Los Angeles Center
04:46PM 35.9244 -114.0919 87° East 415 478 27,800 1,140 Climbing Los Angeles Center
04:47PM 35.9289 -113.9458 88° East 423 487 29,000 1,020 Climbing Los Angeles Center
04:48PM 35.9339 -113.7975 88° East 430 495 30,000 960 Climbing Los Angeles Center
04:49PM 35.9392 -113.6458 87° East 440 506 31,100 1,140 Climbing Los Angeles Center
04:50PM 35.9450 -113.4744 88° East 444 511 32,400 1,140 Climbing Los Angeles Center
04:51PM 35.9489 -113.3225 88° East 444 511 33,500 900 Climbing Los Angeles Center
04:52PM 35.9536 -113.1714 88° East 442 509 34,300 720 Climbing Los Angeles Center
04:53PM 35.9578 -112.9917 88° East 441 507 35,000 300 Climbing Los Angeles Center
04:54PM 35.9614 -112.8372 88° East 449 517 35,000  Level Los Angeles Center
04:55PM 35.9656 -112.6794 88° East 459 528 35,000  Level Los Angeles Center
04:56PM 35.9697 -112.5214 88° East 462 532 35,000  Level Los Angeles Center
04:57PM 35.9725 -112.3642 89° East 460 529 35,000 240 Level Los Angeles Center
04:59PM 35.9758 -112.2014 89° East 464 534 35,500 480 Climbing Los Angeles Center
05:00PM 35.9783 -112.0422 89° East 464 534 36,000 720 Climbing Los Angeles Center
05:01PM 35.9814 -111.8581 89° East 463 533 37,000 720 Climbing Los Angeles Center
05:01PM 35.9817 -111.8281 89° East 462 532 37,000  Level Denver Center
05:02PM 35.9844 -111.6739 89° East 455 524 37,000  Level Denver Center
05:03PM 35.9858 -111.5194 89° East 453 521 37,000  Level Denver Center
05:04PM 35.9889 -111.3628 89° East 456 525 37,000  Level Denver Center
05:05PM 35.9900 -111.1772 90° East 454 522 37,000  Level Denver Center
05:06PM 35.9925 -111.0222 89° East 453 521 37,000  Level Denver Center
05:07PM 35.9925 -110.8658 90° East 456 525 37,000  Level Denver Center
05:08PM 35.9931 -110.7106 90° East 455 524 37,000  Level Denver Center
05:09PM 35.9961 -110.5539 89° East 457 526 37,000  Level Denver Center
05:10PM 35.9958 -110.3978 90° East 457 526 37,000  Level Denver Center
05:11PM 35.9956 -110.2417 90° East 457 526 37,000  Level Denver Center
05:12PM 35.9969 -110.0753 89° East 459 528 37,000  Level Denver Center
05:13PM 35.9953 -109.8994 91° East 458 527 37,000  Level Denver Center
05:14PM 35.9961 -109.7511 90° East 454 522 37,000  Level Denver Center
05:15PM 35.9958 -109.5772 90° East 454 522 37,000  Level Denver Center
05:16PM 35.9947 -109.4281 90° East 454 522 37,000  Level Denver Center
05:17PM 35.9944 -109.2544 90° East 454 522 37,000  Level Denver Center
05:18PM 35.9944 -109.2286 90° East 454 522 37,000  Level Albuquerque Center
05:18PM 35.9931 -109.1072 91° East 453 521 37,000  Level Denver Center
05:19PM 35.9917 -108.9842 91° East 452 520 37,000  Level Denver Center
05:20PM 35.9906 -108.7886 90° East 458 527 37,000  Level Denver Center
05:21PM 35.9922 -108.7569 86° East 453 521 37,000  Level Albuquerque Center
05:22PM 35.9903 -108.6019 91° East 453 521 37,000  Level Albuquerque Center
05:23PM 35.9883 -108.4231 91° East 449 517 37,000  Level Albuquerque Center
05:24PM 35.9861 -108.2753 91° East 449 517 37,000  Level Albuquerque Center
05:25PM 35.9831 -108.1039 91° East 449 517 37,000  Level Albuquerque Center
05:26PM 35.9808 -107.9561 91° East 449 517 37,000  Level Albuquerque Center
05:27PM 35.9781 -107.8083 91° East 450 518 37,000  Level Albuquerque Center
05:28PM 35.9747 -107.6364 91° East 449 517 37,000  Level Albuquerque Center
05:29PM 35.9725 -107.4875 91° East 452 520 37,000  Level Albuquerque Center
05:30PM 35.9683 -107.3144 92° East 452 520 37,000  Level Albuquerque Center
05:31PM 35.9653 -107.1769 92° East 456 525 37,000  Level Albuquerque Center
05:32PM 35.9617 -107.0203 92° East 456 525 37,000  Level Albuquerque Center
05:33PM 35.9594 -106.8628 91° East 458 527 37,000  Level Albuquerque Center
05:34PM 35.9539 -106.6731 92° East 460 529 37,000  Level Albuquerque Center
05:35PM 35.9497 -106.5133 92° East 463 533 37,000  Level Albuquerque Center
05:36PM 35.9456 -106.3553 92° East 461 531 37,000  Level Albuquerque Center
05:37PM 35.9414 -106.1958 92° East 463 533 37,000  Level Albuquerque Center
05:38PM 35.9347 -106.0336 93° East 469 540 37,000  Level Albuquerque Center
05:39PM 35.9303 -105.8744 92° East 466 536 37,000  Level Albuquerque Center
05:40PM 35.9256 -105.7125 92° East 470 541 37,000  Level Albuquerque Center
05:41PM 35.9181 -105.5569 93° East 460 529 37,000  Level Albuquerque Center
05:42PM 35.9125 -105.3986 92° East 446 513 37,000  Level Albuquerque Center
05:43PM 35.9069 -105.2433 92° East 446 513 37,000  Level Albuquerque Center
05:44PM 35.8994 -105.0628 93° East 448 516 37,000  Level Albuquerque Center
05:45PM 35.8936 -104.9094 93° East 444 511 37,000 -60 Level Albuquerque Center
05:46PM 35.8864 -104.7581 93° East 439 505 36,900 -300 Descending Albuquerque Center
05:47PM 35.8794 -104.6044 93° East 443 510 36,400 -720 Descending Albuquerque Center
05:48PM 35.8719 -104.4567 94° East 433 498 35,500 -720 Descending Albuquerque Center
05:49PM 35.8650 -104.3039 93° East 436 502 35,000 -300 Descending Albuquerque Center
05:50PM 35.8581 -104.1494 93° East 443 510 35,000  Level Albuquerque Center
05:51PM 35.8511 -103.9967 93° East 443 510 35,000  Level Albuquerque Center
05:52PM 35.8436 -103.8425 93° East 444 511 35,000  Level Albuquerque Center
05:53PM 35.8353 -103.6889 94° East 444 511 35,000  Level Albuquerque Center
05:54PM 35.8267 -103.5336 94° East 447 514 35,000  Level Albuquerque Center
05:55PM 35.8194 -103.3800 93° East 445 512 35,000  Level Albuquerque Center
05:56PM 35.8103 -103.2272 94° East 444 511 35,000  Level Albuquerque Center
05:58PM 35.8014 -103.0733 94° East 446 513 35,000  Level Albuquerque Center
05:59PM 35.7914 -102.8967 94° East 448 516 35,000  Level Albuquerque Center
06:00PM 35.7828 -102.7414 94° East 452 520 35,000  Level Albuquerque Center
06:01PM 35.7725 -102.5878 95° East 452 520 35,000  Level Albuquerque Center
06:02PM 35.7625 -102.4297 94° East 460 529 35,000  Level Albuquerque Center
06:03PM 35.7531 -102.2708 94° East 464 534 35,000  Level Albuquerque Center
06:04PM 35.7422 -102.1094 95° East 469 540 35,000  Level Albuquerque Center
06:05PM 35.7322 -101.9475 94° East 472 543 35,000  Level Albuquerque Center
06:06PM 35.7217 -101.7867 95° East 470 541 35,000  Level Albuquerque Center
06:07PM 35.7111 -101.6264 95° East 468 539 35,000  Level Albuquerque Center
06:08PM 35.6997 -101.4650 95° East 470 541 35,000  Level Albuquerque Center
06:09PM 35.6850 -101.2708 95° East 471 542 35,000  Level Albuquerque Center
06:10PM 35.6736 -101.1103 95° East 470 541 35,000  Level Albuquerque Center
06:11PM 35.6619 -100.9492 95° East 471 542 35,000  Level Albuquerque Center
06:12PM 35.6503 -100.7897 95° East 469 540 35,000  Level Albuquerque Center
06:13PM 35.6383 -100.6264 95° East 472 543 35,000  Level Albuquerque Center
06:14PM 35.6250 -100.4633 96° East 476 548 35,000  Level Albuquerque Center
06:15PM 35.6119 -100.3006 96° East 478 550 35,000  Level Albuquerque Center
06:16PM 35.5983 -100.1381 96° East 478 550 35,000  Level Albuquerque Center
06:17PM 35.5853 -99.9753 96° East 479 551 35,000  Level Albuquerque Center
06:18PM 35.5708 -99.8108 96° East 483 556 35,000  Level Albuquerque Center
06:19PM 35.5536 -99.6142 96° East 484 557 35,000  Level Albuquerque Center
06:20PM 35.5450 -99.5158 96° East 485 558 35,000  Level Fort Worth Center
06:21PM 35.5289 -99.3469 97° East 485 558 35,000  Level Fort Worth Center
06:22PM 35.5147 -99.1833 96° East 485 558 35,000  Level Fort Worth Center
06:23PM 35.5003 -99.0147 96° East 485 558 35,000  Level Fort Worth Center
06:24PM 35.4856 -98.8489 96° East 485 558 35,000  Level Fort Worth Center
06:25PM 35.4686 -98.6803 97° East 485 558 35,000  Level Fort Worth Center
06:26PM 35.4536 -98.5119 96° East 485 558 35,000  Level Fort Worth Center
06:27PM 35.4381 -98.3639 97° East 485 558 35,000  Level Fort Worth Center
06:28PM 35.4225 -98.1956 96° East 490 564 35,000  Level Fort Worth Center
06:29PM 35.4047 -98.0247 97° East 495 570 35,000  Level Fort Worth Center
06:30PM 35.3886 -97.8567 97° East 500 575 35,000  Level Fort Worth Center
06:31PM 35.3706 -97.6886 97° East 500 575 35,000  Level Fort Worth Center
06:32PM 35.3519 -97.4950 97° East 511 588 35,000  Level Fort Worth Center
06:33PM 35.3333 -97.3269 98° East 516 594 35,000  Level Fort Worth Center
06:34PM 35.3142 -97.1542 98° East 516 594 35,000  Level Fort Worth Center
06:35PM 35.2969 -96.9861 97° East 510 587 35,000  Level Fort Worth Center
06:36PM 35.2775 -96.8158 98° East 505 581 35,000  Level Fort Worth Center
06:37PM 35.2581 -96.6458 98° East 505 581 35,000  Level Fort Worth Center
06:38PM 35.2381 -96.4731 98° East 505 581 35,000  Level Fort Worth Center
06:39PM 35.2200 -96.3031 97° East 505 581 35,000  Level Fort Worth Center
06:40PM 35.1994 -96.1306 98° East 505 581 35,000  Level Fort Worth Center
06:41PM 35.1808 -95.9581 97° East 505 581 35,000  Level Fort Worth Center
06:42PM 35.1644 -95.8111 98° East 499 574 35,000  Level Fort Worth Center
06:43PM 35.1436 -95.6414 98° East 499 574 35,000  Level Fort Worth Center
06:45PM 35.0981 -95.2756 99° East 495 570 35,000  Level Memphis Center
06:46PM 35.0778 -95.1044 98° East 507 583 35,000  Level Memphis Center
06:47PM 35.0550 -94.9331 99° East 507 583 35,000  Level Memphis Center
06:48PM 35.0339 -94.7622 99° East 507 583 35,000  Level Memphis Center
06:49PM 35.0144 -94.5989 98° East 516 594 35,000  Level Memphis Center
06:50PM 34.9728 -94.4144 105° East 522 601 35,000  Level Memphis Center
06:51PM 34.9319 -94.2503 107° East 517 595 35,000  Level Memphis Center
06:52PM 34.8892 -94.0836 107° East 512 589 35,000  Level Memphis Center
06:53PM 34.8503 -93.9175 106° East 506 582 35,000  Level Memphis Center
06:54PM 34.8111 -93.7514 106° East 506 582 35,000 -300 Level Memphis Center
06:55PM 34.7739 -93.5831 105° East 506 582 34,400 -780 Descending Memphis Center
06:56PM 34.7342 -93.4200 106° East 506 582 33,500 -720 Descending Memphis Center
06:57PM 34.6942 -93.2569 107° East 500 575 33,000 -360 Descending Memphis Center
06:58PM 34.6561 -93.0939 106° East 500 575 32,800 -540 Descending Memphis Center
06:59PM 34.6158 -92.9336 107° East 500 575 32,000 -900 Descending Memphis Center
07:00PM 34.5772 -92.7711 106° East 500 575 31,000 -1,200 Descending Memphis Center
07:01PM 34.5406 -92.6061 105° East 500 575 29,700 -1,380 Descending Memphis Center
07:02PM 34.5039 -92.4414 105° East 505 581 28,300 -1,500 Descending Memphis Center
07:03PM 34.4628 -92.2792 107° East 500 575 26,800 -1,500 Descending Memphis Center
07:04PM 34.4275 -92.1197 105° East 500 575 25,400 -1,500 Descending Memphis Center
07:05PM 34.4089 -91.9558 98° East 495 570 23,900 -1,500 Descending Memphis Center
07:06PM 34.4086 -91.7922 90° East 490 564 22,500 -1,680 Descending Memphis Center
07:07PM 34.4083 -91.6336 90° East 480 552 20,600 -1,920 Descending Memphis Center
07:08PM 34.4097 -91.4775 89° East 468 539 18,700 -1,920 Descending Memphis Center
07:09PM 34.4111 -91.3189 89° East 463 533 16,800 -1,500 Descending Memphis Center
07:10PM 34.4100 -91.1703 90° East 449 517 15,800 -1,020 Descending Memphis Center
07:11PM 34.4108 -91.0242 90° East 439 505 14,800 -1,080 Descending Memphis Center
07:12PM 34.4242 -90.8883 83° East 427 491 13,700 -1,680 Descending Memphis Center
07:13PM 34.4789 -90.7703 61° Northeast 396 456 11,500 -1,680 Descending Memphis Center
07:14PM 34.5356 -90.6672 56° Northeast 381 438 10,400 -780 Descending Memphis Center
07:15PM 34.6150 -90.6119 30° Northeast 336 387 10,000 -540 Descending Memphis Center
07:16PM 34.6672 -90.5364 50° Northeast 323 372 9,400 -540 Descending Memphis Center
07:17PM 34.7214 -90.4481 53° Northeast 317 365 9,000 -240 Descending Memphis Center
07:18PM 34.7778 -90.3622 51° Northeast 317 365 9,000  Level Memphis Center
07:19PM 34.8319 -90.2761 53° Northeast 317 365 9,000 -60 Level Memphis Center
07:20PM 34.8883 -90.1900 51° Northeast 322 371 8,900 -1,200 Descending Memphis Center
07:21PM 34.9508 -90.1036 49° Northeast 316 364 6,600 -1,500 Descending Memphis Center
07:22PM 35.0322 -90.1086 357° North 267 307 6,000 -1,380 Descending Memphis Center
07:23PM 35.1136 -90.1158 356° North 274 315 3,900 -1,560 Descending Memphis Center
07:24PM 35.1864 -90.1258 354° North 279 321 2,900 -900 Descending Memphis Center
07:25PM 35.2197 -90.0700 54° Northeast 201 231 2,100 -840 Descending Memphis Center